3D2

Ephraim-Gibraltar Airport

Ephraim, Wisconsin, USA
METAR K3D2 191615Z AUTO 02011KT 10SM BKN028 M12/M17 A3026 RMK AO2 T11191173
Observed Flight Rules
Jan-19 @ 16:15 UTC (24 minutes ago) Marginal Visual Flight Rules
Wind Visibility Clouds
20° at 11 knots 10 miles
  • Broken at 2,800' AGL
Temperatures Readings
Current -12°C / 10°F
Dewpoint -17°C / 1°F
Humidity 67%
Altimeter 30.26" Hg
Pressure 1024.72 hPa
Elevation 234
METAR K3D2 191615Z AUTO 02011KT 10SM BKN028 M12/M17 A3026 RMK AO2 T11191173
Observed Flight Rules
Jan-19 @ 16:15 UTC
(24 minutes ago)
MVFR
Wind Visibility
20° at 11 knots 10 miles
Clouds
  • Broken at 2,800' AGL
Temperature Dewpoint
-12°C / 10°F -17°C / 1°F
Humidity Altimeter Pressure
67% 30.26" Hg 1024.72 hPa